KAL1811 RKSS-RKPK
Flight info
| Callsign | KAL1811 |
|---|---|
| Flight time | 0h 45m |
| Altitude | 19000 |
| Route | SOT1W SOT A582 TGU W526 MASTA |
| Aircraft | B721/M-SDFGHRWY/C |
Departure
| Time | 2026-05-04 07:39 |
|---|---|
| Airport | Gimpo International Airport (RKSS) |
Arrival
| Time | 2026-05-04 08:25 |
|---|---|
| Airport | Gimhae International Airport (RKPK) |
| Time | Latitude | Longitude | Altitude | Speed | Heading |
|---|---|---|---|---|---|
| 2026-05-04 07:12 | 37.55762 | 126.80322 | 70 ft | 0 kts | 45° |
| 2026-05-04 07:29 | 37.55761 | 126.80320 | 70 ft | 2 kts | 45° |
| 2026-05-04 07:30 | 37.55750 | 126.80307 | 71 ft | 2 kts | 45° |
| 2026-05-04 07:30 | 37.55740 | 126.80294 | 70 ft | 2 kts | 45° |
| 2026-05-04 07:30 | 37.55729 | 126.80280 | 70 ft | 2 kts | 45° |
| 2026-05-04 07:30 | 37.55719 | 126.80267 | 70 ft | 2 kts | 45° |
| 2026-05-04 07:31 | 37.55708 | 126.80254 | 71 ft | 2 kts | 45° |
| 2026-05-04 07:31 | 37.55698 | 126.80240 | 70 ft | 2 kts | 59° |
| 2026-05-04 07:33 | 37.55705 | 126.80201 | 70 ft | 0 kts | 136° |
| 2026-05-04 07:34 | 37.55696 | 126.80212 | 70 ft | 5 kts | 136° |
| 2026-05-04 07:34 | 37.55660 | 126.80260 | 70 ft | 8 kts | 137° |
| 2026-05-04 07:34 | 37.55606 | 126.80312 | 70 ft | 11 kts | 155° |
| 2026-05-04 07:34 | 37.55535 | 126.80363 | 70 ft | 11 kts | 140° |
| 2026-05-04 07:35 | 37.55479 | 126.80431 | 70 ft | 11 kts | 135° |
| 2026-05-04 07:35 | 37.55423 | 126.80502 | 71 ft | 11 kts | 136° |
| 2026-05-04 07:35 | 37.55364 | 126.80573 | 70 ft | 11 kts | 136° |
| 2026-05-04 07:35 | 37.55306 | 126.80646 | 70 ft | 11 kts | 136° |
| 2026-05-04 07:36 | 37.55242 | 126.80635 | 70 ft | 10 kts | 226° |
| 2026-05-04 07:36 | 37.55190 | 126.80568 | 71 ft | 10 kts | 225° |
| 2026-05-04 07:38 | 37.54823 | 126.80085 | 70 ft | 10 kts | 278° |
| 2026-05-04 07:38 | 37.54840 | 126.80054 | 71 ft | 0 kts | 314° |
| 2026-05-04 07:39 | 37.54866 | 126.80022 | 70 ft | 28 kts | 314° |
| 2026-05-04 07:39 | 37.55204 | 126.79596 | 70 ft | 107 kts | 315° |
| 2026-05-04 07:39 | 37.55887 | 126.78735 | 177 ft | 160 kts | 315° |
| 2026-05-04 07:39 | 37.56702 | 126.77691 | 733 ft | 175 kts | 315° |
| 2026-05-04 07:40 | 37.57540 | 126.76646 | 1608 ft | 171 kts | 315° |
| 2026-05-04 07:40 | 37.58371 | 126.75616 | 2266 ft | 167 kts | 315° |
| 2026-05-04 07:40 | 37.59201 | 126.74588 | 2830 ft | 167 kts | 315° |
| 2026-05-04 07:40 | 37.59926 | 126.73689 | 3295 ft | 167 kts | 315° |
| 2026-05-04 07:41 | 37.60777 | 126.72634 | 3816 ft | 168 kts | 315° |
| 2026-05-04 07:41 | 37.61515 | 126.71523 | 4255 ft | 169 kts | 286° |
| 2026-05-04 07:41 | 37.61442 | 126.70068 | 4639 ft | 170 kts | 237° |
| 2026-05-04 07:41 | 37.60537 | 126.69173 | 5027 ft | 171 kts | 192° |
| 2026-05-04 07:42 | 37.59380 | 126.68953 | 5458 ft | 173 kts | 184° |
| 2026-05-04 07:42 | 37.58131 | 126.68871 | 5692 ft | 190 kts | 182° |
| 2026-05-04 07:42 | 37.56731 | 126.68815 | 5946 ft | 209 kts | 182° |
| 2026-05-04 07:42 | 37.55209 | 126.68761 | 6168 ft | 231 kts | 182° |
| 2026-05-04 07:43 | 37.53527 | 126.68703 | 6385 ft | 258 kts | 182° |
| 2026-05-04 07:43 | 37.51653 | 126.68639 | 6685 ft | 280 kts | 182° |
| 2026-05-04 07:43 | 37.49706 | 126.68572 | 7501 ft | 281 kts | 182° |
| 2026-05-04 07:43 | 37.47763 | 126.68527 | 8332 ft | 281 kts | 176° |
| 2026-05-04 07:44 | 37.45881 | 126.69144 | 9063 ft | 281 kts | 160° |
| 2026-05-04 07:44 | 37.44076 | 126.70020 | 9773 ft | 283 kts | 158° |
| 2026-05-04 07:44 | 37.42249 | 126.70988 | 10445 ft | 287 kts | 157° |
| 2026-05-04 07:44 | 37.40389 | 126.71993 | 11009 ft | 295 kts | 157° |
| 2026-05-04 07:45 | 37.38561 | 126.73182 | 11535 ft | 301 kts | 144° |
| 2026-05-04 07:45 | 37.36932 | 126.74863 | 12031 ft | 309 kts | 140° |
| 2026-05-04 07:45 | 37.35269 | 126.76674 | 12323 ft | 325 kts | 139° |
| 2026-05-04 07:45 | 37.33550 | 126.78549 | 12771 ft | 335 kts | 139° |
| 2026-05-04 07:46 | 37.31748 | 126.80486 | 13380 ft | 342 kts | 140° |
| 2026-05-04 07:46 | 37.29924 | 126.82410 | 14063 ft | 346 kts | 140° |
| 2026-05-04 07:46 | 37.28068 | 126.84332 | 14781 ft | 348 kts | 141° |
| 2026-05-04 07:46 | 37.26207 | 126.86227 | 15503 ft | 351 kts | 141° |
| 2026-05-04 07:47 | 37.24287 | 126.88161 | 16269 ft | 354 kts | 141° |
| 2026-05-04 07:47 | 37.22368 | 126.90086 | 16993 ft | 358 kts | 141° |
| 2026-05-04 07:47 | 37.20411 | 126.92037 | 17641 ft | 364 kts | 141° |
| 2026-05-04 07:49 | 37.05624 | 127.07719 | 19030 ft | 437 kts | 136° |
| 2026-05-04 07:49 | 37.03437 | 127.10390 | 19035 ft | 443 kts | 135° |
| 2026-05-04 07:49 | 37.01255 | 127.13104 | 19040 ft | 449 kts | 135° |
| 2026-05-04 07:50 | 36.98988 | 127.15852 | 19045 ft | 455 kts | 136° |
| 2026-05-04 07:50 | 36.96704 | 127.18619 | 19050 ft | 460 kts | 136° |
| 2026-05-04 07:50 | 36.94402 | 127.21388 | 19054 ft | 464 kts | 136° |
| 2026-05-04 07:50 | 36.92088 | 127.24168 | 19054 ft | 459 kts | 136° |
| 2026-05-04 07:51 | 36.89784 | 127.26931 | 19052 ft | 453 kts | 136° |
| 2026-05-04 07:51 | 36.87517 | 127.29589 | 19051 ft | 447 kts | 136° |
| 2026-05-04 07:51 | 36.85272 | 127.32239 | 19050 ft | 441 kts | 136° |
| 2026-05-04 07:51 | 36.83060 | 127.34856 | 19049 ft | 436 kts | 136° |
| 2026-05-04 07:52 | 36.80954 | 127.37608 | 19048 ft | 431 kts | 130° |
| 2026-05-04 07:52 | 36.79020 | 127.40422 | 19048 ft | 425 kts | 130° |
| 2026-05-04 07:52 | 36.77079 | 127.43203 | 19045 ft | 418 kts | 131° |
| 2026-05-04 07:52 | 36.75171 | 127.45862 | 19042 ft | 411 kts | 132° |
| 2026-05-04 07:53 | 36.73255 | 127.48459 | 19039 ft | 404 kts | 133° |
| 2026-05-04 07:54 | 36.59996 | 127.64919 | 19021 ft | 368 kts | 136° |
| 2026-05-04 07:55 | 36.58134 | 127.67121 | 19020 ft | 366 kts | 136° |
| 2026-05-04 07:55 | 36.56302 | 127.69283 | 19021 ft | 366 kts | 136° |
| 2026-05-04 07:55 | 36.54449 | 127.71469 | 19024 ft | 368 kts | 136° |
| 2026-05-04 07:55 | 36.52575 | 127.73679 | 19026 ft | 370 kts | 136° |
| 2026-05-04 07:56 | 36.50721 | 127.75871 | 19028 ft | 372 kts | 136° |
| 2026-05-04 07:56 | 36.48840 | 127.78102 | 19029 ft | 373 kts | 136° |
| 2026-05-04 07:56 | 36.46981 | 127.80317 | 19002 ft | 376 kts | 136° |
| 2026-05-04 07:56 | 36.45080 | 127.82594 | 18991 ft | 381 kts | 136° |
| 2026-05-04 07:57 | 36.43171 | 127.84884 | 18995 ft | 386 kts | 136° |
| 2026-05-04 07:57 | 36.41206 | 127.87186 | 19001 ft | 391 kts | 137° |
| 2026-05-04 07:57 | 36.39167 | 127.89459 | 19003 ft | 396 kts | 139° |
| 2026-05-04 07:57 | 36.37115 | 127.91740 | 19003 ft | 401 kts | 137° |
| 2026-05-04 07:58 | 36.35052 | 127.94087 | 19003 ft | 404 kts | 137° |
| 2026-05-04 07:58 | 36.32972 | 127.96478 | 19002 ft | 407 kts | 137° |
| 2026-05-04 07:58 | 36.30904 | 127.98886 | 19002 ft | 411 kts | 136° |
| 2026-05-04 07:58 | 36.28826 | 128.01341 | 19002 ft | 414 kts | 136° |
| 2026-05-04 07:59 | 36.26763 | 128.03815 | 19002 ft | 417 kts | 136° |
| 2026-05-04 07:59 | 36.24683 | 128.06342 | 19001 ft | 419 kts | 135° |
| 2026-05-04 07:59 | 36.22597 | 128.08905 | 19001 ft | 422 kts | 135° |
| 2026-05-04 07:59 | 36.20527 | 128.11472 | 19001 ft | 425 kts | 135° |
| 2026-05-04 08:00 | 36.18429 | 128.14082 | 19001 ft | 427 kts | 135° |
| 2026-05-04 08:00 | 36.16352 | 128.16669 | 19001 ft | 429 kts | 135° |
| 2026-05-04 08:00 | 36.14232 | 128.19299 | 19001 ft | 431 kts | 135° |
| 2026-05-04 08:02 | 35.98979 | 128.37648 | 19000 ft | 443 kts | 136° |
| 2026-05-04 08:02 | 35.96750 | 128.40291 | 19000 ft | 444 kts | 136° |
| 2026-05-04 08:02 | 35.94536 | 128.42925 | 19000 ft | 446 kts | 136° |
| 2026-05-04 08:03 | 35.92293 | 128.45599 | 19000 ft | 447 kts | 135° |
| 2026-05-04 08:03 | 35.90071 | 128.48254 | 19000 ft | 448 kts | 135° |
| 2026-05-04 08:03 | 35.87783 | 128.50905 | 18999 ft | 449 kts | 136° |
| 2026-05-04 08:03 | 35.85555 | 128.53548 | 19000 ft | 449 kts | 135° |
| 2026-05-04 08:04 | 35.83290 | 128.56247 | 19000 ft | 450 kts | 135° |
| 2026-05-04 08:04 | 35.80988 | 128.58798 | 18992 ft | 450 kts | 144° |
| 2026-05-04 08:04 | 35.78144 | 128.60413 | 19015 ft | 447 kts | 165° |
| 2026-05-04 08:04 | 35.75204 | 128.60776 | 19379 ft | 414 kts | 180° |
| 2026-05-04 08:05 | 35.72419 | 128.60355 | 19001 ft | 402 kts | 195° |
| 2026-05-04 08:05 | 35.69773 | 128.59271 | 18123 ft | 404 kts | 200° |
| 2026-05-04 08:05 | 35.67151 | 128.58037 | 17548 ft | 397 kts | 201° |
| 2026-05-04 08:05 | 35.64664 | 128.56747 | 16948 ft | 392 kts | 206° |
| 2026-05-04 08:06 | 35.62318 | 128.55089 | 16232 ft | 390 kts | 210° |
| 2026-05-04 08:06 | 35.59950 | 128.53488 | 15467 ft | 388 kts | 200° |
| 2026-05-04 08:06 | 35.57322 | 128.52783 | 14739 ft | 385 kts | 188° |
| 2026-05-04 08:06 | 35.54682 | 128.52344 | 14105 ft | 381 kts | 186° |
| 2026-05-04 08:08 | 35.40070 | 128.57504 | 9493 ft | 269 kts | 126° |
| 2026-05-04 08:08 | 35.39005 | 128.59279 | 9057 ft | 254 kts | 126° |
| 2026-05-04 08:10 | 35.29030 | 128.64905 | 6566 ft | 231 kts | 199° |
| 2026-05-04 08:11 | 35.27487 | 128.64343 | 6386 ft | 229 kts | 195° |
| 2026-05-04 08:11 | 35.24462 | 128.63475 | 6060 ft | 214 kts | 187° |
| 2026-05-04 08:11 | 35.23028 | 128.63295 | 6020 ft | 202 kts | 185° |
| 2026-05-04 08:12 | 35.21652 | 128.63164 | 6009 ft | 194 kts | 184° |
| 2026-05-04 08:12 | 35.20331 | 128.63145 | 6015 ft | 189 kts | 176° |
| 2026-05-04 08:12 | 35.19027 | 128.63275 | 6026 ft | 189 kts | 175° |
| 2026-05-04 08:12 | 35.17705 | 128.63435 | 6037 ft | 190 kts | 174° |
| 2026-05-04 08:13 | 35.16398 | 128.63640 | 6042 ft | 192 kts | 168° |
| 2026-05-04 08:13 | 35.15075 | 128.64038 | 6042 ft | 195 kts | 165° |
| 2026-05-04 08:13 | 35.13763 | 128.64482 | 6044 ft | 199 kts | 164° |
| 2026-05-04 08:13 | 35.12414 | 128.64949 | 6045 ft | 203 kts | 163° |
| 2026-05-04 08:14 | 35.11077 | 128.65579 | 6045 ft | 208 kts | 156° |
| 2026-05-04 08:14 | 35.09756 | 128.66327 | 6045 ft | 212 kts | 155° |
| 2026-05-04 08:14 | 35.08409 | 128.67122 | 6044 ft | 217 kts | 153° |
| 2026-05-04 08:16 | 35.00157 | 128.75841 | 6018 ft | 225 kts | 126° |
| 2026-05-04 08:16 | 34.99290 | 128.77362 | 5916 ft | 212 kts | 124° |
| 2026-05-04 08:16 | 34.98579 | 128.78871 | 5638 ft | 205 kts | 116° |
| 2026-05-04 08:17 | 34.97974 | 128.80426 | 5292 ft | 202 kts | 115° |
| 2026-05-04 08:17 | 34.97396 | 128.81979 | 4889 ft | 202 kts | 114° |
| 2026-05-04 08:17 | 34.96918 | 128.83591 | 4469 ft | 203 kts | 108° |
| 2026-05-04 08:17 | 34.96497 | 128.85231 | 4067 ft | 203 kts | 107° |
| 2026-05-04 08:19 | 34.97961 | 128.95349 | 3543 ft | 203 kts | 37° |
| 2026-05-04 08:19 | 34.99130 | 128.96237 | 3471 ft | 193 kts | 12° |
| 2026-05-04 08:20 | 35.00427 | 128.96284 | 3266 ft | 187 kts | 349° |
| 2026-05-04 08:20 | 35.01682 | 128.95978 | 3003 ft | 178 kts | 349° |
| 2026-05-04 08:20 | 35.02858 | 128.95712 | 2761 ft | 164 kts | 350° |
| 2026-05-04 08:20 | 35.03921 | 128.95506 | 2512 ft | 147 kts | 352° |
| 2026-05-04 08:21 | 35.04882 | 128.95344 | 2269 ft | 133 kts | 353° |
| 2026-05-04 08:21 | 35.05758 | 128.95216 | 2057 ft | 123 kts | 353° |
| 2026-05-04 08:21 | 35.06610 | 128.95116 | 1747 ft | 127 kts | 354° |
| 2026-05-04 08:21 | 35.07500 | 128.95027 | 1721 ft | 129 kts | 356° |
| 2026-05-04 08:22 | 35.08418 | 128.94926 | 1669 ft | 138 kts | 354° |
| 2026-05-04 08:22 | 35.09356 | 128.94815 | 1424 ft | 133 kts | 354° |
| 2026-05-04 08:24 | 35.15868 | 128.93970 | 195 ft | 135 kts | 353° |
| 2026-05-04 08:24 | 35.16805 | 128.93846 | 34 ft | 135 kts | 354° |
| 2026-05-04 08:24 | 35.17633 | 128.93741 | 26 ft | 101 kts | 354° |
| 2026-05-04 08:24 | 35.18179 | 128.93671 | 33 ft | 56 kts | 354° |
| 2026-05-04 08:25 | 35.18481 | 128.93631 | 36 ft | 25 kts | 354° |
| 2026-05-04 08:25 | 35.18550 | 128.93628 | 36 ft | 7 kts | 22° |
| 2026-05-04 08:25 | 35.18579 | 128.93677 | 35 ft | 7 kts | 80° |
| 2026-05-04 08:25 | 35.18584 | 128.93751 | 34 ft | 10 kts | 84° |
| 2026-05-04 08:26 | 35.18593 | 128.93849 | 32 ft | 12 kts | 85° |
| 2026-05-04 08:27 | 35.18014 | 128.94188 | 23 ft | 18 kts | 174° |
| 2026-05-04 08:28 | 35.17945 | 128.94199 | 23 ft | 2 kts | 174° |
| 2026-05-04 08:28 | 35.17923 | 128.94202 | 23 ft | 4 kts | 176° |
| 2026-05-04 08:28 | 35.17867 | 128.94205 | 23 ft | 12 kts | 176° |
| 2026-05-04 08:28 | 35.17772 | 128.94225 | 22 ft | 13 kts | 160° |
| 2026-05-04 08:29 | 35.17750 | 128.94269 | 22 ft | 5 kts | 102° |
| 2026-05-04 08:29 | 35.17743 | 128.94316 | 22 ft | 5 kts | 103° |
| 2026-05-04 08:29 | 35.17726 | 128.94369 | 21 ft | 7 kts | 118° |
| 2026-05-04 08:31 | 35.17255 | 128.94472 | 22 ft | 11 kts | 173° |
| 2026-05-04 08:33 | 35.16921 | 128.94771 | 23 ft | 3 kts | 70° |
| 2026-05-04 08:33 | 35.16944 | 128.94795 | 23 ft | 6 kts | 29° |
| 2026-05-04 08:35 | 35.16976 | 128.94812 | 23 ft | 0 kts | 24° |